Tipton, KS (67485)

9:15 PM CDT on September 26, 2016 (GMT -0500)
KH Farms | | Change Station

Elev 1529 ft 39.38 °N, 98.46 °W | Updated 17 seconds ago

Clear
Clear
54.7 °F
Feels Like 54.7 °F
N
0.9
Wind Variable Wind from South
Gusts 3.0 mph

Today
High -- | Low -- °F
--% Chance of Precip.
Yesterday
High -- | Low -- °F
Precip. -- in
Pressure 30.16 in
Visibility 10.0 miles
Clouds Clear
Dew Point 50 °F
Humidity 84%
Rainfall 0.00 in
Snow Depth Not available.
7:25 AM 7:23 PM
Waning Crescent, 15% visible
METAR KRSL 270153Z AUTO 17006KT 10SM CLR 15/08 A3016 RMK AO2 SLP212 T01500078
Pressure 30.16 in
Visibility 10.0 miles
Clouds Clear
Dew Point 50 °F
Humidity 84%
Rainfall 0.00 in
Snow Depth Not available.
7:25 AM 7:23 PM
Waning Crescent, 15% visible
METAR KRSL 270153Z AUTO 17006KT 10SM CLR 15/08 A3016 RMK AO2 SLP212 T01500078

10-Day Weather Forecast

Almanac

Astronomy

Sep. 26, 2016 Rise Set
Actual Time
Civil Twilight
Nautical Twilight
Astronomical Twilight
Moon
Length of Visible Light
Length of Day
Tomorrow will be .
, % of the Moon is Illuminated

Today's Extremes

State Highs State Lows

Community

WunderPhotos

Upload Photos

1,942,020 photos uploaded!

WunderBlog® & News

Nearby

Air Quality

  Air Quality AQ Index Pollutant
Not available.

Snow Depth

Station Depth Elevation

Earthquake Activity

City Distance Mag. Time & Date
Minimum magnitude displayed is 2.5.

Coastal Water Temperatures

Place Temperature

Stations

Nearby Weather Stations

Station Location Temp. Windchill Dew Point Humidity Wind Precip. Elev Updated Type
                   

Watches & Warnings

There are currently no watches in effect.